createdAt,value
2022-08-23T00:02:29.489Z,101134.88
2022-08-23T00:05:09.132Z,101129.75
2022-08-23T00:07:41.825Z,101127.28
2022-08-23T00:10:13.390Z,101125.97
2022-08-23T00:12:45.251Z,101118.13
2022-08-23T00:15:16.783Z,101115.09
2022-08-23T00:17:48.710Z,101118.34
2022-08-23T00:20:20.363Z,101123.22
2022-08-23T00:22:52.480Z,101122.94
2022-08-23T00:25:23.993Z,101120.50
2022-08-23T00:27:56.035Z,101121.31
2022-08-23T00:30:27.548Z,101118.34
2022-08-23T00:32:59.435Z,101121.03
2022-08-23T00:35:30.961Z,101117.81
2022-08-23T00:38:31.941Z,101112.13
2022-08-23T00:40:54.804Z,101117.81
2022-08-23T00:43:45.071Z,101112.13
2022-08-23T00:46:35.653Z,101106.72
2022-08-23T00:49:07.180Z,101103.47
2022-08-23T00:51:43.085Z,101103.19
2022-08-23T00:54:24.932Z,101102.38
2022-08-23T00:56:56.836Z,101104.00
2022-08-23T00:59:28.940Z,101102.91
2022-08-23T01:02:01.376Z,101108.06
2022-08-23T01:04:32.933Z,101101.03
2022-08-23T01:07:04.886Z,101103.72
2022-08-23T01:09:36.405Z,101096.69
2022-08-23T01:12:08.355Z,101096.16
2022-08-23T01:14:39.891Z,101090.75
2022-08-23T01:17:11.817Z,101093.97
2022-08-23T01:19:43.338Z,101089.94
2022-08-23T01:22:15.195Z,101099.13
2022-08-23T01:25:07.345Z,101095.84
2022-08-23T01:27:38.585Z,101096.69
2022-08-23T01:30:10.120Z,101093.41
2022-08-23T01:32:42.147Z,101095.03
2022-08-23T01:35:14.066Z,101100.44
2022-08-23T01:37:46.199Z,101101.25
2022-08-23T01:40:17.824Z,101105.34
2022-08-23T01:42:49.733Z,101104.47
2022-08-23T01:45:21.291Z,101107.44
2022-08-23T01:47:53.117Z,101110.97
2022-08-23T01:50:24.666Z,101109.06
2022-08-23T01:52:56.625Z,101104.47
2022-08-23T01:55:29.189Z,101109.88
2022-08-23T01:58:00.722Z,101113.38
2022-08-23T02:00:33.220Z,101109.06
2022-08-23T02:03:04.747Z,101099.88
2022-08-23T02:05:37.282Z,101099.31
2022-08-23T02:08:27.733Z,101098.47
2022-08-23T02:10:59.590Z,101099.28
2022-08-23T02:13:31.132Z,101091.97
2022-08-23T02:16:03.097Z,101097.91
2022-08-23T02:18:34.652Z,101101.44
2022-08-23T02:23:40.921Z,101096.84
2022-08-23T02:26:12.888Z,101098.72
2022-08-23T02:28:44.935Z,101088.22
2022-08-23T02:31:16.774Z,101084.44
2022-08-23T02:36:39.722Z,101084.16
2022-08-23T02:39:11.280Z,101084.16
2022-08-23T02:41:42.918Z,101083.06
2022-08-23T02:44:14.480Z,101093.06
2022-08-23T02:46:46.574Z,101091.72
2022-08-23T02:49:18.394Z,101091.97
2022-08-23T02:51:50.358Z,101101.19
2022-08-23T02:54:22.073Z,101103.06
2022-08-23T02:56:54.283Z,101105.78
2022-08-23T02:59:25.872Z,101108.47
2022-08-23T03:01:57.486Z,101104.97
2022-08-23T03:04:29.106Z,101118.22
2022-08-23T03:07:00.697Z,101114.41
2022-08-23T03:09:32.262Z,101122.25
2022-08-23T03:12:04.223Z,101128.44
2022-08-23T03:14:37.935Z,101122.53
2022-08-23T03:17:09.540Z,101114.69
2022-08-23T03:19:41.114Z,101118.47
2022-08-23T03:22:13.213Z,101126.03
2022-08-23T03:24:45.358Z,101125.50
2022-08-23T03:27:16.921Z,101129.81
2022-08-23T03:29:49.166Z,101124.94
2022-08-23T03:32:20.727Z,101128.44
2022-08-23T03:34:52.498Z,101135.22
2022-08-23T03:37:24.046Z,101138.19
2022-08-23T03:39:56.118Z,101138.44
2022-08-23T03:42:30.866Z,101141.41
2022-08-23T03:45:03.263Z,101138.16
2022-08-23T03:47:35.189Z,101141.94
2022-08-23T03:50:07.032Z,101145.44
2022-08-23T03:52:38.576Z,101140.22
2022-08-23T03:55:10.455Z,101142.69
2022-08-23T03:57:41.959Z,101144.06
2022-08-23T04:00:13.653Z,101135.63
2022-08-23T04:02:51.831Z,101134.59
2022-08-23T04:05:23.809Z,101140.00
2022-08-23T04:07:55.418Z,101138.34
2022-08-23T04:10:27.392Z,101141.63
2022-08-23T04:12:58.997Z,101144.31
2022-08-23T04:15:31.417Z,101141.94
2022-08-23T04:18:03.028Z,101135.16
2022-08-23T04:20:35.074Z,101139.16
2022-08-23T04:23:06.622Z,101129.50
2022-08-23T04:25:39.134Z,101133.25
2022-08-23T04:28:10.636Z,101142.94
2022-08-23T04:30:42.629Z,101137.03
2022-08-23T04:33:18.433Z,101139.78
2022-08-23T04:35:53.249Z,101143.50
2022-08-23T04:38:25.423Z,101137.59
2022-08-23T04:41:16.101Z,101146.81
2022-08-23T04:43:47.603Z,101149.25
2022-08-23T04:46:19.439Z,101152.50
2022-08-23T04:48:51.391Z,101156.00
2022-08-23T04:51:22.890Z,101158.47
2022-08-23T04:53:55.773Z,101162.81
2022-08-23T04:56:28.387Z,101164.44
2022-08-23T04:59:00.377Z,101169.03
2022-08-23T05:01:31.891Z,101169.03
2022-08-23T05:04:03.506Z,101169.03
2022-08-23T05:06:35.137Z,101157.16
2022-08-23T05:09:07.028Z,101166.59
2022-08-23T05:11:38.512Z,101173.91
2022-08-23T05:14:10.412Z,101178.25
2022-08-23T05:16:41.913Z,101171.50
2022-08-23T05:19:13.957Z,101173.97
2022-08-23T05:21:45.493Z,101180.47
2022-08-23T05:24:17.309Z,101179.94
2022-08-23T05:26:48.817Z,101177.22
2022-08-23T05:29:21.916Z,101162.91
2022-08-23T05:31:53.800Z,101168.88
2022-08-23T05:34:26.005Z,101174.03
2022-08-23T05:36:57.551Z,101177.34
2022-08-23T05:39:35.999Z,101186.53
2022-08-23T05:42:08.700Z,101181.97
2022-08-23T05:44:40.494Z,101179.00
2022-08-23T05:47:12.031Z,101185.00
2022-08-23T05:49:43.834Z,101182.28
2022-08-23T05:52:15.395Z,101185.81
2022-08-23T05:54:47.305Z,101182.81
2022-08-23T05:57:18.826Z,101186.06
2022-08-23T05:59:50.649Z,101185.28
2022-08-23T06:02:22.147Z,101190.13
2022-08-23T06:04:57.258Z,101192.03
2022-08-23T06:07:28.973Z,101194.72
2022-08-23T06:10:00.876Z,101198.72
2022-08-23T06:12:32.426Z,101202.25
2022-08-23T06:15:05.688Z,101201.16
2022-08-23T06:17:37.576Z,101207.72
2022-08-23T06:20:10.623Z,101206.88
2022-08-23T06:22:42.176Z,101206.59
2022-08-23T06:25:13.986Z,101202.56
2022-08-23T06:27:45.520Z,101199.06
2022-08-23T06:30:17.338Z,101193.09
2022-08-23T06:32:48.904Z,101205.78
2022-08-23T06:35:38.287Z,101200.94
2022-08-23T06:38:11.163Z,101196.53
2022-08-23T06:40:43.281Z,101197.91
2022-08-23T06:43:14.814Z,101199.16
2022-08-23T06:45:54.878Z,101192.88
2022-08-23T06:48:29.887Z,101199.91
2022-08-23T06:51:01.771Z,101198.72
2022-08-23T06:53:33.308Z,101205.69
2022-08-23T06:56:05.303Z,101209.41
2022-08-23T06:58:36.811Z,101211.13
2022-08-23T07:01:18.797Z,101214.16
2022-08-23T07:04:00.174Z,101213.53
2022-08-23T07:06:32.303Z,101215.59
2022-08-23T07:09:03.830Z,101215.81
2022-08-23T07:11:35.773Z,101222.25
2022-08-23T07:14:07.402Z,101218.69
2022-08-23T07:16:39.284Z,101218.25
2022-08-23T07:19:10.828Z,101222.63
2022-08-23T07:21:42.704Z,101209.75
2022-08-23T07:24:14.914Z,101217.38
2022-08-23T07:26:46.462Z,101219.75
2022-08-23T07:29:18.353Z,101217.25
2022-08-23T07:31:49.943Z,101219.91
2022-08-23T07:34:21.833Z,101219.91
2022-08-23T07:36:53.436Z,101216.84
2022-08-23T07:39:27.021Z,101220.34
2022-08-23T07:41:58.549Z,101215.13
2022-08-23T07:44:34.552Z,101218.16
2022-08-23T07:47:06.094Z,101219.91
2022-08-23T07:49:38.140Z,101217.63
2022-08-23T07:52:12.164Z,101214.75
2022-08-23T07:54:48.366Z,101214.28
2022-08-23T07:57:20.393Z,101219.63
2022-08-23T07:59:52.215Z,101226.72
2022-08-23T08:02:23.785Z,101218.69
2022-08-23T08:04:55.633Z,101221.47
2022-08-23T08:07:27.612Z,101218.06
2022-08-23T08:10:02.835Z,101228.66
2022-08-23T08:12:34.360Z,101225.69
2022-08-23T08:15:06.241Z,101220.50
2022-08-23T08:17:37.761Z,101228.84
2022-08-23T08:20:09.801Z,101224.50
2022-08-23T08:22:46.707Z,101223.31
2022-08-23T08:25:19.631Z,101227.56
2022-08-23T08:27:51.155Z,101231.94
2022-08-23T08:30:23.050Z,101231.22
2022-08-23T08:32:54.608Z,101228.25
2022-08-23T08:35:26.412Z,101228.56
2022-08-23T08:37:58.102Z,101224.66
2022-08-23T08:40:30.706Z,101224.75
2022-08-23T08:43:05.581Z,101224.84
2022-08-23T08:45:37.737Z,101227.78
2022-08-23T08:48:13.320Z,101234.31
2022-08-23T08:50:45.580Z,101234.97
2022-08-23T08:53:17.090Z,101237.06
2022-08-23T08:55:48.766Z,101239.09
2022-08-23T08:58:20.255Z,101236.63
2022-08-23T09:00:56.571Z,101231.94
2022-08-23T09:03:28.411Z,101234.44
2022-08-23T09:06:00.365Z,101231.13
2022-08-23T09:08:31.898Z,101233.91
2022-08-23T09:11:07.106Z,101237.16
2022-08-23T09:13:40.295Z,101237.25
2022-08-23T09:16:15.926Z,101237.16
2022-08-23T09:18:47.661Z,101232.13
2022-08-23T09:21:19.691Z,101237.06
2022-08-23T09:23:57.124Z,101235.44
2022-08-23T09:26:32.992Z,101221.56
2022-08-23T09:29:04.581Z,101226.34
2022-08-23T09:31:36.813Z,101236.69
2022-08-23T09:34:08.376Z,101227.25
2022-08-23T09:36:40.332Z,101233.34
2022-08-23T09:39:11.829Z,101228.66
2022-08-23T09:41:44.063Z,101234.97
2022-08-23T09:44:16.980Z,101230.81
2022-08-23T09:46:48.481Z,101236.66
2022-08-23T09:49:21.401Z,101236.16
2022-08-23T09:51:54.232Z,101233.44
2022-08-23T09:54:26.156Z,101234.13
2022-08-23T09:56:57.704Z,101240.25
2022-08-23T09:59:29.840Z,101239.16
2022-08-23T10:02:02.313Z,101224.75
2022-08-23T10:04:34.553Z,101237.69
2022-08-23T10:07:06.244Z,101233.28
2022-08-23T10:09:38.376Z,101223.94
2022-08-23T10:12:09.921Z,101224.00
2022-08-23T10:14:43.348Z,101225.09
2022-08-23T10:17:14.973Z,101229.22
2022-08-23T10:19:47.745Z,101226.22
2022-08-23T10:22:19.556Z,101222.66
2022-08-23T10:24:51.424Z,101230.22
2022-08-23T10:27:41.964Z,101226.19
2022-08-23T10:30:13.852Z,101220.25
2022-08-23T10:32:46.154Z,101215.03
2022-08-23T10:35:18.062Z,101220.91
2022-08-23T10:37:49.623Z,101222.06
2022-08-23T10:40:21.562Z,101221.06
2022-08-23T10:42:53.337Z,101221.75
2022-08-23T10:45:25.722Z,101222.72
2022-08-23T10:47:59.037Z,101216.09
2022-08-23T10:50:31.014Z,101216.44
2022-08-23T10:53:02.570Z,101219.44
2022-08-23T10:55:57.810Z,101210.78
2022-08-23T10:58:30.855Z,101214.47
2022-08-23T11:01:02.961Z,101222.53
2022-08-23T11:03:34.610Z,101225.78
2022-08-23T11:06:06.439Z,101098.16
2022-08-23T11:08:47.512Z,101223.38
2022-08-23T11:11:19.952Z,101220.75
2022-08-23T11:13:51.473Z,101217.53
2022-08-23T11:16:23.330Z,101220.44
2022-08-23T11:18:54.878Z,101217.50
2022-08-23T11:21:28.781Z,101219.31
2022-08-23T11:24:00.334Z,101218.19
2022-08-23T11:26:36.656Z,101222.06
2022-08-23T11:29:08.250Z,101218.84
2022-08-23T11:31:41.423Z,101224.94
2022-08-23T11:34:13.291Z,101225.78
2022-08-23T11:36:44.866Z,101223.72
2022-08-23T11:39:21.629Z,101218.22
2022-08-23T11:41:57.097Z,101223.88
2022-08-23T11:44:29.193Z,101224.00
2022-08-23T11:47:00.806Z,101224.50
2022-08-23T11:49:34.627Z,101223.66
2022-08-23T11:52:06.523Z,101231.72
2022-08-23T11:54:39.729Z,101234.09
2022-08-23T11:57:11.266Z,101236.88
2022-08-23T11:59:43.174Z,101229.28
2022-08-23T12:02:18.439Z,101221.03
2022-08-23T12:04:51.781Z,101236.16
2022-08-23T12:07:24.147Z,101234.34
2022-08-23T12:09:56.896Z,101228.97
2022-08-23T12:12:28.476Z,101238.66
2022-08-23T12:15:00.448Z,101241.25
2022-08-23T12:17:31.982Z,101222.94
2022-08-23T12:20:16.342Z,101221.84
2022-08-23T12:22:48.603Z,101213.28
2022-08-23T12:25:20.799Z,101228.78
2022-08-23T12:27:52.499Z,101233.66
2022-08-23T12:30:24.420Z,101227.59
2022-08-23T12:32:56.016Z,101232.38
2022-08-23T12:35:27.900Z,101229.66
2022-08-23T12:37:59.473Z,101220.16
2022-08-23T12:40:32.084Z,101223.22
2022-08-23T12:43:03.918Z,101222.22
2022-08-23T12:45:35.634Z,101227.66
2022-08-23T12:48:07.187Z,101228.44
2022-08-23T12:50:39.059Z,101229.03
2022-08-23T12:53:10.608Z,101224.63
2022-08-23T12:55:42.553Z,101219.84
2022-08-23T12:58:14.107Z,101207.56
2022-08-23T13:00:45.984Z,101206.56
2022-08-23T13:03:17.588Z,101202.38
2022-08-23T13:05:52.787Z,101206.03
2022-08-23T13:08:34.155Z,101202.72
2022-08-23T13:11:08.539Z,101194.81
2022-08-23T13:13:40.215Z,101191.63
2022-08-23T13:16:12.151Z,101197.38
2022-08-23T13:18:43.774Z,101192.56
2022-08-23T13:21:15.728Z,101191.03
2022-08-23T13:23:47.847Z,101181.28
2022-08-23T13:26:19.965Z,101180.38
2022-08-23T13:28:52.038Z,101179.56
2022-08-23T13:31:23.703Z,101181.41
2022-08-23T13:33:55.631Z,101191.94
2022-08-23T13:36:27.609Z,101170.72
2022-08-23T13:38:59.615Z,101178.53
2022-08-23T13:41:31.162Z,101186.94
2022-08-23T13:44:03.193Z,101196.44
2022-08-23T13:46:34.915Z,101196.28
2022-08-23T13:49:06.975Z,101186.44
2022-08-23T13:51:38.837Z,101188.53
2022-08-23T13:54:11.114Z,101190.94
2022-08-23T13:56:42.733Z,101184.66
2022-08-23T13:59:14.550Z,101193.03
2022-08-23T14:01:46.132Z,101182.56
2022-08-23T14:04:18.299Z,101190.16
2022-08-23T14:06:51.396Z,101193.03
2022-08-23T14:09:23.289Z,101185.56
2022-08-23T14:11:54.838Z,101183.16
2022-08-23T14:14:26.820Z,101193.88
2022-08-23T14:17:02.489Z,101188.69
2022-08-23T14:22:26.346Z,101178.84
2022-08-23T14:24:58.440Z,101180.50
2022-08-23T14:27:29.985Z,101176.25
2022-08-23T14:30:01.622Z,101175.34
2022-08-23T14:32:33.191Z,101173.31
2022-08-23T14:35:05.310Z,101162.50
2022-08-23T14:40:29.352Z,101172.75
2022-08-23T14:43:01.038Z,101169.53
2022-08-23T14:45:33.055Z,101161.63
2022-08-23T14:48:04.590Z,101165.63
2022-08-23T14:50:36.911Z,101167.28
2022-08-23T14:53:08.512Z,101159.38
2022-08-23T14:55:40.362Z,101159.50
2022-08-23T14:58:11.884Z,101157.19
2022-08-23T15:00:43.799Z,101148.28
2022-08-23T15:03:15.372Z,101156.13
2022-08-23T15:05:47.208Z,101154.00
2022-08-23T15:08:18.792Z,101157.66
2022-08-23T15:12:57.042Z,101157.66
2022-08-23T15:13:55.603Z,101161.38
2022-08-23T15:16:28.217Z,101160.28
2022-08-23T15:19:00.092Z,101162.34
2022-08-23T15:21:31.997Z,101156.63
2022-08-23T15:24:03.632Z,101158.06
2022-08-23T15:26:35.194Z,101162.94
2022-08-23T15:29:07.132Z,101155.19
2022-08-23T15:31:38.685Z,101159.69
2022-08-23T15:34:12.789Z,101149.34
2022-08-23T15:36:44.491Z,101143.22
2022-08-23T15:39:16.487Z,101146.19
2022-08-23T15:41:48.036Z,101147.22
2022-08-23T15:44:19.898Z,101146.97
2022-08-23T15:46:51.428Z,101143.03
2022-08-23T15:49:23.260Z,101139.59
2022-08-23T15:51:54.806Z,101147.84
2022-08-23T15:54:26.677Z,101143.38
2022-08-23T15:56:58.212Z,101153.59
2022-08-23T15:59:30.360Z,101148.91
2022-08-23T16:02:01.986Z,101136.63
2022-08-23T16:04:35.638Z,101144.31
2022-08-23T16:07:07.526Z,101149.03
2022-08-23T16:09:39.489Z,101152.22
2022-08-23T16:12:11.001Z,101148.22
2022-08-23T16:14:42.789Z,101149.97
2022-08-23T16:17:15.082Z,101146.19
2022-08-23T16:19:46.916Z,101146.63
2022-08-23T16:22:18.516Z,101145.41
2022-08-23T16:24:50.395Z,101145.16
2022-08-23T16:27:21.879Z,101145.81
2022-08-23T16:29:53.817Z,101137.19
2022-08-23T16:32:25.489Z,101137.38
2022-08-23T16:34:57.332Z,101131.34
2022-08-23T16:37:28.856Z,101144.25
2022-08-23T16:40:00.888Z,101134.16
2022-08-23T16:42:32.460Z,101132.66
2022-08-23T16:45:04.325Z,101138.22
2022-08-23T16:47:35.848Z,101141.56
2022-08-23T16:50:07.605Z,101147.50
2022-08-23T16:52:39.466Z,101150.66
2022-08-23T16:55:11.338Z,101156.34
2022-08-23T16:57:42.870Z,101155.97
2022-08-23T17:00:15.748Z,101150.09
2022-08-23T17:02:47.358Z,101152.00
2022-08-23T17:05:19.396Z,101159.69
2022-08-23T17:07:51.297Z,101165.03
2022-08-23T17:10:22.799Z,101172.63
2022-08-23T17:12:54.695Z,101178.38
2022-08-23T17:15:26.185Z,101185.44
2022-08-23T17:17:58.003Z,101185.22
2022-08-23T17:20:29.568Z,101174.09
2022-08-23T17:23:01.646Z,101181.88
2022-08-23T17:25:37.452Z,101181.88
2022-08-23T17:28:09.348Z,101182.38
2022-08-23T17:30:40.923Z,101184.97
2022-08-23T17:33:12.884Z,101189.00
2022-08-23T17:35:45.524Z,101191.38
2022-08-23T17:38:17.373Z,101194.41
2022-08-23T17:40:48.978Z,101200.75
2022-08-23T17:43:20.859Z,101190.75
2022-08-23T17:45:52.448Z,101206.50
2022-08-23T17:48:24.583Z,101205.84
2022-08-23T17:51:01.516Z,101207.47
2022-08-23T17:53:33.501Z,101205.22
2022-08-23T17:56:05.848Z,101209.09
2022-08-23T17:58:41.757Z,101215.44
2022-08-23T18:01:13.957Z,101222.50
2022-08-23T18:03:45.894Z,101233.47
2022-08-23T18:06:17.542Z,101228.41
2022-08-23T18:08:49.429Z,101235.81
2022-08-23T18:11:20.931Z,101238.06
2022-08-23T18:13:53.529Z,101241.69
2022-08-23T18:16:31.728Z,101246.94
2022-08-23T18:19:06.507Z,101246.78
2022-08-23T18:21:42.684Z,101247.97
2022-08-23T18:24:14.270Z,101251.56
2022-08-23T18:27:04.748Z,101252.72
2022-08-23T18:29:36.599Z,101253.31
2022-08-23T18:32:08.141Z,101256.63
2022-08-23T18:34:42.443Z,101264.63
2022-08-23T18:37:17.182Z,101265.53
2022-08-23T18:39:49.207Z,101270.78
2022-08-23T18:42:20.789Z,101268.91
2022-08-23T18:44:52.594Z,101271.63
2022-08-23T18:47:24.150Z,101273.00
2022-08-23T18:49:56.035Z,101271.72
2022-08-23T18:52:29.230Z,101272.88
2022-08-23T18:55:03.081Z,101275.06
2022-08-23T18:57:34.657Z,101277.03
2022-08-23T19:00:06.881Z,101283.03
2022-08-23T19:02:38.438Z,101277.94
2022-08-23T19:05:11.654Z,101287.97
2022-08-23T19:07:43.727Z,101287.47
2022-08-23T19:10:20.157Z,101282.31
2022-08-23T19:12:54.375Z,101286.72
2022-08-23T19:15:26.149Z,101284.56
2022-08-23T19:18:01.301Z,101285.13
2022-08-23T19:20:32.842Z,101286.22
2022-08-23T19:23:05.074Z,101288.44
2022-08-23T19:25:38.368Z,101298.22
2022-08-23T19:28:10.211Z,101299.03
2022-08-23T19:30:42.196Z,101308.03
2022-08-23T19:33:13.826Z,101314.84
2022-08-23T19:35:45.544Z,101312.66
2022-08-23T19:38:17.383Z,101314.03
2022-08-23T19:40:49.209Z,101320.03
2022-08-23T19:43:21.004Z,101323.28
2022-08-23T19:45:52.589Z,101321.16
2022-08-23T19:48:24.438Z,101326.31
2022-08-23T19:50:55.974Z,101329.59
2022-08-23T19:53:27.863Z,101326.06
2022-08-23T19:55:59.773Z,101329.06
2022-08-23T19:58:31.286Z,101322.03
2022-08-23T20:01:02.910Z,101324.50
2022-08-23T20:03:34.442Z,101323.97
2022-08-23T20:06:05.959Z,101338.91
2022-08-23T20:08:37.687Z,101341.38
2022-08-23T20:11:10.489Z,101337.03
2022-08-23T20:13:42.056Z,101339.22
2022-08-23T20:16:13.921Z,101341.38
2022-08-23T20:18:46.156Z,101340.31
2022-08-23T20:21:18.016Z,101347.94
2022-08-23T20:24:01.465Z,101349.28
2022-08-23T20:26:33.881Z,101351.22
2022-08-23T20:29:05.374Z,101340.38
2022-08-23T20:31:37.275Z,101346.34
2022-08-23T20:34:08.918Z,101356.94
2022-08-23T20:36:41.352Z,101352.28
2022-08-23T20:39:12.944Z,101351.75
2022-08-23T20:41:44.926Z,101346.06
2022-08-23T20:44:17.042Z,101350.66
2022-08-23T20:46:53.700Z,101354.19
2022-08-23T20:49:26.295Z,101359.38
2022-08-23T20:51:57.837Z,101350.16
2022-08-23T20:54:29.362Z,101355.31
2022-08-23T20:57:01.189Z,101361.81
2022-08-23T20:59:32.691Z,101355.59
2022-08-23T21:02:04.734Z,101359.38
2022-08-23T21:04:36.603Z,101250.22
2022-08-23T21:07:11.751Z,101362.38
2022-08-23T21:09:43.593Z,101360.22
2022-08-23T21:12:15.092Z,101354.50
2022-08-23T21:14:47.400Z,101368.31
2022-08-23T21:17:18.904Z,101357.75
2022-08-23T21:19:50.843Z,101356.97
2022-08-23T21:22:22.401Z,101362.91
2022-08-23T21:25:02.337Z,101359.66
2022-08-23T21:27:34.577Z,101353.97
2022-08-23T21:30:06.642Z,101356.69
2022-08-23T21:32:38.184Z,101358.88
2022-08-23T21:35:10.261Z,101355.63
2022-08-23T21:37:41.782Z,101356.97
2022-08-23T21:40:13.430Z,101355.63
2022-08-23T21:42:45.024Z,101352.09
2022-08-23T21:45:16.908Z,101356.16
2022-08-23T21:47:48.412Z,101351.81
2022-08-23T21:50:20.357Z,101348.50
2022-08-23T21:52:56.722Z,101347.44
2022-08-23T21:55:31.723Z,101344.19
2022-08-23T21:58:07.911Z,101351.50
2022-08-23T22:00:39.888Z,101354.47
2022-08-23T22:03:11.478Z,101347.97
2022-08-23T22:05:43.100Z,101354.72
2022-08-23T22:08:14.676Z,101352.56
2022-08-23T22:10:58.188Z,101351.22
2022-08-23T22:13:29.965Z,101347.16
2022-08-23T22:18:33.533Z,101335.78
2022-08-23T22:21:05.120Z,101349.00
2022-08-23T22:23:36.708Z,101344.94
2022-08-23T22:26:08.282Z,101348.19
2022-08-23T22:28:44.283Z,101349.25
2022-08-23T22:31:16.444Z,101347.34
2022-08-23T22:33:48.503Z,101344.63
2022-08-23T22:36:20.722Z,101343.53
2022-08-23T22:38:52.270Z,101349.19
2022-08-23T22:41:27.718Z,101342.94
2022-08-23T22:43:59.678Z,101344.00
2022-08-23T22:46:31.255Z,101347.22
2022-08-23T22:49:03.819Z,101348.25
2022-08-23T22:51:35.342Z,101349.88
2022-08-23T22:54:07.307Z,101350.66
2022-08-23T22:56:38.850Z,101352.00
2022-08-23T22:59:10.700Z,101350.09
2022-08-23T23:01:42.234Z,101352.25
2022-08-23T23:04:16.237Z,101349.78
2022-08-23T23:06:48.973Z,101349.47
2022-08-23T23:09:20.917Z,101352.16
2022-08-23T23:11:52.565Z,101349.19
2022-08-23T23:14:24.552Z,101351.31
2022-08-23T23:16:56.178Z,101348.34
2022-08-23T23:19:46.778Z,101354.56
2022-08-23T23:22:18.284Z,101354.00
2022-08-23T23:24:50.209Z,101351.28
2022-08-23T23:27:21.739Z,101357.19
2022-08-23T23:29:53.739Z,101348.81
2022-08-23T23:32:25.261Z,101356.91
2022-08-23T23:34:57.320Z,101348.25
2022-08-23T23:37:32.361Z,101348.78
2022-08-23T23:40:04.431Z,101348.44
2022-08-23T23:42:36.014Z,101350.59
2022-08-23T23:45:07.814Z,101346.28
2022-08-23T23:47:39.381Z,101341.38
2022-08-23T23:50:11.448Z,101340.56
2022-08-23T23:52:42.977Z,101348.38
2022-08-23T23:55:15.010Z,101346.22
2022-08-23T23:57:46.521Z,101349.97
